sensor_id;sensor_type;location;lat;lon;timestamp;P1;durP1;ratioP1;P2;durP2;ratioP2
16705;SDS011;8469;60.136;15.180;2022-11-03T00:02:11;2.35;;;1.45;;
16705;SDS011;8469;60.136;15.180;2022-11-03T00:04:38;3.77;;;1.30;;
16705;SDS011;8469;60.136;15.180;2022-11-03T00:07:05;5.30;;;1.47;;
16705;SDS011;8469;60.136;15.180;2022-11-03T00:09:33;6.12;;;1.47;;
16705;SDS011;8469;60.136;15.180;2022-11-03T00:12:00;6.90;;;1.42;;
16705;SDS011;8469;60.136;15.180;2022-11-03T00:14:27;7.35;;;1.35;;
16705;SDS011;8469;60.136;15.180;2022-11-03T00:16:55;6.90;;;1.65;;
16705;SDS011;8469;60.136;15.180;2022-11-03T00:19:22;7.25;;;1.42;;
16705;SDS011;8469;60.136;15.180;2022-11-03T00:21:49;6.20;;;1.30;;
16705;SDS011;8469;60.136;15.180;2022-11-03T00:24:17;3.87;;;1.30;;
16705;SDS011;8469;60.136;15.180;2022-11-03T00:26:45;5.55;;;1.45;;
16705;SDS011;8469;60.136;15.180;2022-11-03T00:29:12;4.92;;;1.27;;
16705;SDS011;8469;60.136;15.180;2022-11-03T00:31:41;6.53;;;1.52;;
16705;SDS011;8469;60.136;15.180;2022-11-03T00:34:09;5.30;;;1.30;;
16705;SDS011;8469;60.136;15.180;2022-11-03T00:36:37;5.28;;;1.30;;
16705;SDS011;8469;60.136;15.180;2022-11-03T00:39:06;6.83;;;1.50;;
16705;SDS011;8469;60.136;15.180;2022-11-03T00:41:33;7.10;;;1.57;;
16705;SDS011;8469;60.136;15.180;2022-11-03T00:44:01;5.70;;;1.60;;
16705;SDS011;8469;60.136;15.180;2022-11-03T00:46:28;5.10;;;1.42;;
16705;SDS011;8469;60.136;15.180;2022-11-03T00:48:56;6.03;;;1.45;;
16705;SDS011;8469;60.136;15.180;2022-11-03T00:51:24;4.40;;;1.10;;
16705;SDS011;8469;60.136;15.180;2022-11-03T00:53:58;3.60;;;1.22;;
16705;SDS011;8469;60.136;15.180;2022-11-03T00:56:30;11.35;;;1.52;;
16705;SDS011;8469;60.136;15.180;2022-11-03T00:58:58;4.20;;;1.25;;
16705;SDS011;8469;60.136;15.180;2022-11-03T01:01:30;4.80;;;1.10;;
16705;SDS011;8469;60.136;15.180;2022-11-03T01:03:57;6.60;;;1.20;;
16705;SDS011;8469;60.136;15.180;2022-11-03T01:06:44;7.85;;;1.30;;
16705;SDS011;8469;60.136;15.180;2022-11-03T01:09:22;4.55;;;1.25;;
16705;SDS011;8469;60.136;15.180;2022-11-03T01:11:52;3.37;;;1.17;;
16705;SDS011;8469;60.136;15.180;2022-11-03T01:14:19;4.83;;;1.75;;
16705;SDS011;8469;60.136;15.180;2022-11-03T01:16:46;4.25;;;1.20;;
16705;SDS011;8469;60.136;15.180;2022-11-03T01:19:13;6.73;;;1.10;;
16705;SDS011;8469;60.136;15.180;2022-11-03T01:21:41;3.45;;;1.22;;
16705;SDS011;8469;60.136;15.180;2022-11-03T01:24:09;5.47;;;1.30;;
16705;SDS011;8469;60.136;15.180;2022-11-03T01:26:36;5.17;;;1.37;;
16705;SDS011;8469;60.136;15.180;2022-11-03T01:29:03;5.28;;;1.55;;
16705;SDS011;8469;60.136;15.180;2022-11-03T01:31:31;5.28;;;1.30;;
16705;SDS011;8469;60.136;15.180;2022-11-03T01:33:58;4.90;;;1.25;;
16705;SDS011;8469;60.136;15.180;2022-11-03T01:36:25;7.58;;;1.40;;
16705;SDS011;8469;60.136;15.180;2022-11-03T01:38:53;3.37;;;1.27;;
16705;SDS011;8469;60.136;15.180;2022-11-03T01:41:25;8.50;;;1.42;;
16705;SDS011;8469;60.136;15.180;2022-11-03T01:44:36;4.28;;;1.20;;
16705;SDS011;8469;60.136;15.180;2022-11-03T01:46:32;4.05;;;1.40;;
16705;SDS011;8469;60.136;15.180;2022-11-03T01:49:19;1.30;;;1.00;;
16705;SDS011;8469;60.136;15.180;2022-11-03T01:51:47;2.95;;;0.98;;
16705;SDS011;8469;60.136;15.180;2022-11-03T01:54:16;3.17;;;1.00;;
16705;SDS011;8469;60.136;15.180;2022-11-03T01:56:44;4.08;;;1.45;;
16705;SDS011;8469;60.136;15.180;2022-11-03T01:59:12;5.20;;;1.05;;
16705;SDS011;8469;60.136;15.180;2022-11-03T02:01:41;1.75;;;0.80;;
16705;SDS011;8469;60.136;15.180;2022-11-03T02:04:15;1.80;;;0.80;;
16705;SDS011;8469;60.136;15.180;2022-11-03T02:06:38;2.70;;;0.88;;
16705;SDS011;8469;60.136;15.180;2022-11-03T02:09:06;5.62;;;1.00;;
16705;SDS011;8469;60.136;15.180;2022-11-03T02:11:34;3.62;;;1.00;;
16705;SDS011;8469;60.136;15.180;2022-11-03T02:14:20;5.40;;;1.10;;
16705;SDS011;8469;60.136;15.180;2022-11-03T02:16:53;6.40;;;1.10;;
16705;SDS011;8469;60.136;15.180;2022-11-03T02:19:19;4.37;;;1.00;;
16705;SDS011;8469;60.136;15.180;2022-11-03T02:24:17;2.37;;;1.10;;
16705;SDS011;8469;60.136;15.180;2022-11-03T02:26:43;3.10;;;0.93;;
16705;SDS011;8469;60.136;15.180;2022-11-03T02:29:12;2.05;;;0.98;;
16705;SDS011;8469;60.136;15.180;2022-11-03T02:31:45;1.72;;;0.90;;
16705;SDS011;8469;60.136;15.180;2022-11-03T02:34:22;4.70;;;1.00;;
16705;SDS011;8469;60.136;15.180;2022-11-03T02:36:54;1.98;;;0.98;;
16705;SDS011;8469;60.136;15.180;2022-11-03T02:39:24;5.67;;;1.10;;
16705;SDS011;8469;60.136;15.180;2022-11-03T02:41:52;2.67;;;0.80;;
16705;SDS011;8469;60.136;15.180;2022-11-03T02:44:21;2.20;;;1.00;;
16705;SDS011;8469;60.136;15.180;2022-11-03T02:46:52;3.42;;;1.02;;
16705;SDS011;8469;60.136;15.180;2022-11-03T02:49:19;1.50;;;0.70;;
16705;SDS011;8469;60.136;15.180;2022-11-03T02:51:46;3.95;;;0.90;;
16705;SDS011;8469;60.136;15.180;2022-11-03T02:54:16;3.42;;;0.72;;
16705;SDS011;8469;60.136;15.180;2022-11-03T02:56:45;4.85;;;1.00;;
16705;SDS011;8469;60.136;15.180;2022-11-03T02:59:12;9.00;;;1.50;;
16705;SDS011;8469;60.136;15.180;2022-11-03T03:01:41;4.13;;;1.50;;
16705;SDS011;8469;60.136;15.180;2022-11-03T03:04:21;3.55;;;1.60;;
16705;SDS011;8469;60.136;15.180;2022-11-03T03:06:59;2.42;;;1.15;;
16705;SDS011;8469;60.136;15.180;2022-11-03T03:09:25;4.95;;;1.62;;
16705;SDS011;8469;60.136;15.180;2022-11-03T03:11:52;5.03;;;1.22;;
16705;SDS011;8469;60.136;15.180;2022-11-03T03:14:26;3.90;;;1.00;;
16705;SDS011;8469;60.136;15.180;2022-11-03T03:16:59;5.33;;;1.10;;
16705;SDS011;8469;60.136;15.180;2022-11-03T03:20:10;4.90;;;1.10;;
16705;SDS011;8469;60.136;15.180;2022-11-03T03:22:00;5.35;;;1.17;;
16705;SDS011;8469;60.136;15.180;2022-11-03T03:24:44;5.67;;;1.00;;
16705;SDS011;8469;60.136;15.180;2022-11-03T03:27:09;3.58;;;1.00;;
16705;SDS011;8469;60.136;15.180;2022-11-03T03:29:42;3.60;;;0.82;;
16705;SDS011;8469;60.136;15.180;2022-11-03T03:32:09;4.30;;;1.10;;
16705;SDS011;8469;60.136;15.180;2022-11-03T03:34:38;5.45;;;1.25;;
16705;SDS011;8469;60.136;15.180;2022-11-03T03:37:09;3.95;;;1.07;;
16705;SDS011;8469;60.136;15.180;2022-11-03T03:39:38;4.35;;;0.82;;
16705;SDS011;8469;60.136;15.180;2022-11-03T03:42:09;2.90;;;1.00;;
16705;SDS011;8469;60.136;15.180;2022-11-03T03:44:38;5.43;;;1.10;;
16705;SDS011;8469;60.136;15.180;2022-11-03T03:47:12;4.05;;;1.00;;
16705;SDS011;8469;60.136;15.180;2022-11-03T03:49:35;5.08;;;1.10;;
16705;SDS011;8469;60.136;15.180;2022-11-03T03:52:02;9.23;;;1.27;;
16705;SDS011;8469;60.136;15.180;2022-11-03T03:54:30;2.42;;;0.85;;
16705;SDS011;8469;60.136;15.180;2022-11-03T03:56:59;2.45;;;0.98;;
16705;SDS011;8469;60.136;15.180;2022-11-03T03:59:27;5.50;;;1.10;;
16705;SDS011;8469;60.136;15.180;2022-11-03T04:01:54;5.28;;;1.00;;
16705;SDS011;8469;60.136;15.180;2022-11-03T04:04:22;6.70;;;1.10;;
16705;SDS011;8469;60.136;15.180;2022-11-03T04:06:49;7.12;;;1.17;;
16705;SDS011;8469;60.136;15.180;2022-11-03T04:09:18;4.20;;;0.90;;
16705;SDS011;8469;60.136;15.180;2022-11-03T04:11:45;6.78;;;1.10;;
16705;SDS011;8469;60.136;15.180;2022-11-03T04:14:31;7.10;;;1.22;;
16705;SDS011;8469;60.136;15.180;2022-11-03T04:17:18;3.70;;;1.30;;
16705;SDS011;8469;60.136;15.180;2022-11-03T04:20:03;5.62;;;1.20;;
16705;SDS011;8469;60.136;15.180;2022-11-03T04:22:48;6.97;;;1.10;;
16705;SDS011;8469;60.136;15.180;2022-11-03T04:25:16;6.15;;;1.27;;
16705;SDS011;8469;60.136;15.180;2022-11-03T04:27:43;7.17;;;1.40;;
16705;SDS011;8469;60.136;15.180;2022-11-03T04:30:14;8.35;;;1.07;;
16705;SDS011;8469;60.136;15.180;2022-11-03T04:32:43;6.33;;;1.00;;
16705;SDS011;8469;60.136;15.180;2022-11-03T04:35:18;9.70;;;1.30;;
16705;SDS011;8469;60.136;15.180;2022-11-03T04:37:47;6.20;;;1.30;;
16705;SDS011;8469;60.136;15.180;2022-11-03T04:40:14;3.73;;;1.00;;
16705;SDS011;8469;60.136;15.180;2022-11-03T04:42:43;5.70;;;1.25;;
16705;SDS011;8469;60.136;15.180;2022-11-03T04:45:19;6.47;;;1.20;;
16705;SDS011;8469;60.136;15.180;2022-11-03T04:47:44;7.28;;;1.40;;
16705;SDS011;8469;60.136;15.180;2022-11-03T04:50:16;5.78;;;1.67;;
16705;SDS011;8469;60.136;15.180;2022-11-03T04:52:45;9.63;;;1.10;;
16705;SDS011;8469;60.136;15.180;2022-11-03T04:55:13;4.10;;;1.17;;
16705;SDS011;8469;60.136;15.180;2022-11-03T04:57:42;9.03;;;1.22;;
16705;SDS011;8469;60.136;15.180;2022-11-03T05:00:14;13.88;;;5.12;;
16705;SDS011;8469;60.136;15.180;2022-11-03T05:02:38;16.82;;;6.22;;
16705;SDS011;8469;60.136;15.180;2022-11-03T05:05:17;9.65;;;2.42;;
16705;SDS011;8469;60.136;15.180;2022-11-03T05:07:40;10.72;;;1.57;;
16705;SDS011;8469;60.136;15.180;2022-11-03T05:10:13;4.72;;;1.60;;
16705;SDS011;8469;60.136;15.180;2022-11-03T05:12:37;6.22;;;1.60;;
16705;SDS011;8469;60.136;15.180;2022-11-03T05:15:06;5.75;;;1.60;;
16705;SDS011;8469;60.136;15.180;2022-11-03T05:17:34;6.03;;;1.65;;
16705;SDS011;8469;60.136;15.180;2022-11-03T05:20:03;4.90;;;1.62;;
16705;SDS011;8469;60.136;15.180;2022-11-03T05:22:33;7.20;;;1.72;;
16705;SDS011;8469;60.136;15.180;2022-11-03T05:25:00;5.80;;;2.30;;
16705;SDS011;8469;60.136;15.180;2022-11-03T05:27:28;6.05;;;1.70;;
16705;SDS011;8469;60.136;15.180;2022-11-03T05:29:56;8.38;;;1.70;;
16705;SDS011;8469;60.136;15.180;2022-11-03T05:32:26;5.67;;;1.80;;
16705;SDS011;8469;60.136;15.180;2022-11-03T05:34:54;8.50;;;1.77;;
16705;SDS011;8469;60.136;15.180;2022-11-03T05:37:23;6.72;;;1.37;;
16705;SDS011;8469;60.136;15.180;2022-11-03T05:39:50;5.45;;;1.60;;
16705;SDS011;8469;60.136;15.180;2022-11-03T05:44:50;9.18;;;1.95;;
16705;SDS011;8469;60.136;15.180;2022-11-03T05:47:19;9.80;;;2.17;;
16705;SDS011;8469;60.136;15.180;2022-11-03T05:49:47;5.15;;;1.87;;
16705;SDS011;8469;60.136;15.180;2022-11-03T05:52:18;10.17;;;3.50;;
16705;SDS011;8469;60.136;15.180;2022-11-03T05:54:44;9.67;;;2.57;;
16705;SDS011;8469;60.136;15.180;2022-11-03T05:57:15;9.00;;;3.10;;
16705;SDS011;8469;60.136;15.180;2022-11-03T05:59:43;10.00;;;2.52;;
16705;SDS011;8469;60.136;15.180;2022-11-03T06:02:32;7.67;;;1.98;;
16705;SDS011;8469;60.136;15.180;2022-11-03T06:04:46;5.28;;;1.80;;
16705;SDS011;8469;60.136;15.180;2022-11-03T06:07:19;7.08;;;1.80;;
16705;SDS011;8469;60.136;15.180;2022-11-03T06:09:43;8.68;;;1.85;;
16705;SDS011;8469;60.136;15.180;2022-11-03T06:12:11;7.92;;;1.98;;
16705;SDS011;8469;60.136;15.180;2022-11-03T06:14:39;7.42;;;1.82;;
16705;SDS011;8469;60.136;15.180;2022-11-03T06:17:09;15.05;;;4.35;;
16705;SDS011;8469;60.136;15.180;2022-11-03T06:22:50;7.47;;;1.62;;
16705;SDS011;8469;60.136;15.180;2022-11-03T06:24:33;10.98;;;1.98;;
16705;SDS011;8469;60.136;15.180;2022-11-03T06:27:00;11.00;;;1.85;;
16705;SDS011;8469;60.136;15.180;2022-11-03T06:29:28;5.62;;;1.50;;
16705;SDS011;8469;60.136;15.180;2022-11-03T06:31:58;8.85;;;1.90;;
16705;SDS011;8469;60.136;15.180;2022-11-03T06:34:29;8.88;;;1.90;;
16705;SDS011;8469;60.136;15.180;2022-11-03T06:36:56;14.15;;;2.20;;
16705;SDS011;8469;60.136;15.180;2022-11-03T06:39:24;13.80;;;2.00;;
16705;SDS011;8469;60.136;15.180;2022-11-03T06:41:51;18.07;;;2.50;;
16705;SDS011;8469;60.136;15.180;2022-11-03T06:44:21;15.03;;;2.22;;
16705;SDS011;8469;60.136;15.180;2022-11-03T06:46:48;11.73;;;2.03;;
16705;SDS011;8469;60.136;15.180;2022-11-03T06:49:34;16.35;;;2.45;;
16705;SDS011;8469;60.136;15.180;2022-11-03T06:51:47;11.78;;;2.37;;
16705;SDS011;8469;60.136;15.180;2022-11-03T06:54:15;16.77;;;2.20;;
16705;SDS011;8469;60.136;15.180;2022-11-03T06:56:42;8.98;;;1.60;;
16705;SDS011;8469;60.136;15.180;2022-11-03T06:59:09;13.72;;;1.70;;
16705;SDS011;8469;60.136;15.180;2022-11-03T07:01:39;7.00;;;1.67;;
16705;SDS011;8469;60.136;15.180;2022-11-03T07:04:20;10.63;;;1.90;;
16705;SDS011;8469;60.136;15.180;2022-11-03T07:06:44;14.70;;;2.77;;
16705;SDS011;8469;60.136;15.180;2022-11-03T07:09:18;13.13;;;2.80;;
16705;SDS011;8469;60.136;15.180;2022-11-03T07:11:56;15.72;;;2.33;;
16705;SDS011;8469;60.136;15.180;2022-11-03T07:14:27;11.50;;;1.92;;
16705;SDS011;8469;60.136;15.180;2022-11-03T07:16:56;11.33;;;1.90;;
16705;SDS011;8469;60.136;15.180;2022-11-03T07:19:25;14.07;;;2.37;;
16705;SDS011;8469;60.136;15.180;2022-11-03T07:22:03;13.88;;;2.10;;
16705;SDS011;8469;60.136;15.180;2022-11-03T07:24:32;11.60;;;2.00;;
16705;SDS011;8469;60.136;15.180;2022-11-03T07:29:28;13.22;;;2.25;;
16705;SDS011;8469;60.136;15.180;2022-11-03T07:31:57;16.80;;;2.50;;
16705;SDS011;8469;60.136;15.180;2022-11-03T07:34:26;7.75;;;1.95;;
16705;SDS011;8469;60.136;15.180;2022-11-03T07:36:55;14.58;;;2.42;;
16705;SDS011;8469;60.136;15.180;2022-11-03T07:39:31;8.63;;;1.55;;
16705;SDS011;8469;60.136;15.180;2022-11-03T07:41:52;11.25;;;2.15;;
16705;SDS011;8469;60.136;15.180;2022-11-03T07:44:19;13.93;;;2.50;;
16705;SDS011;8469;60.136;15.180;2022-11-03T07:46:47;11.83;;;2.65;;
16705;SDS011;8469;60.136;15.180;2022-11-03T07:49:19;13.90;;;2.10;;
16705;SDS011;8469;60.136;15.180;2022-11-03T07:51:44;8.70;;;1.80;;
16705;SDS011;8469;60.136;15.180;2022-11-03T07:54:18;16.37;;;2.40;;
16705;SDS011;8469;60.136;15.180;2022-11-03T07:56:47;10.32;;;2.30;;
16705;SDS011;8469;60.136;15.180;2022-11-03T07:59:17;11.18;;;2.80;;
16705;SDS011;8469;60.136;15.180;2022-11-03T08:01:44;10.38;;;2.65;;
16705;SDS011;8469;60.136;15.180;2022-11-03T08:04:16;9.45;;;2.37;;
16705;SDS011;8469;60.136;15.180;2022-11-03T08:06:41;16.50;;;2.55;;
16705;SDS011;8469;60.136;15.180;2022-11-03T08:09:09;9.48;;;3.00;;
16705;SDS011;8469;60.136;15.180;2022-11-03T08:11:36;11.83;;;2.37;;
16705;SDS011;8469;60.136;15.180;2022-11-03T08:14:04;15.15;;;2.75;;
16705;SDS011;8469;60.136;15.180;2022-11-03T08:16:31;8.80;;;1.80;;
16705;SDS011;8469;60.136;15.180;2022-11-03T08:18:58;13.45;;;2.60;;
16705;SDS011;8469;60.136;15.180;2022-11-03T08:21:26;11.00;;;2.40;;
16705;SDS011;8469;60.136;15.180;2022-11-03T08:23:53;11.83;;;2.05;;
16705;SDS011;8469;60.136;15.180;2022-11-03T08:26:20;9.03;;;2.00;;
16705;SDS011;8469;60.136;15.180;2022-11-03T08:28:47;11.93;;;1.85;;
16705;SDS011;8469;60.136;15.180;2022-11-03T08:31:15;11.93;;;2.20;;
16705;SDS011;8469;60.136;15.180;2022-11-03T08:33:43;12.23;;;1.80;;
16705;SDS011;8469;60.136;15.180;2022-11-03T08:36:10;9.95;;;2.12;;
16705;SDS011;8469;60.136;15.180;2022-11-03T08:38:37;10.08;;;2.02;;
16705;SDS011;8469;60.136;15.180;2022-11-03T08:41:08;14.65;;;2.15;;
16705;SDS011;8469;60.136;15.180;2022-11-03T08:43:38;8.75;;;1.95;;
16705;SDS011;8469;60.136;15.180;2022-11-03T08:46:04;16.37;;;2.25;;
16705;SDS011;8469;60.136;15.180;2022-11-03T08:48:33;10.38;;;1.95;;
16705;SDS011;8469;60.136;15.180;2022-11-03T08:51:01;12.13;;;2.35;;
16705;SDS011;8469;60.136;15.180;2022-11-03T08:53:28;15.80;;;2.10;;
16705;SDS011;8469;60.136;15.180;2022-11-03T08:55:55;11.65;;;2.00;;
16705;SDS011;8469;60.136;15.180;2022-11-03T08:58:22;12.30;;;2.02;;
16705;SDS011;8469;60.136;15.180;2022-11-03T09:00:50;12.65;;;2.37;;
16705;SDS011;8469;60.136;15.180;2022-11-03T09:03:17;12.33;;;2.17;;
16705;SDS011;8469;60.136;15.180;2022-11-03T09:05:45;10.60;;;1.87;;
16705;SDS011;8469;60.136;15.180;2022-11-03T09:08:12;18.15;;;2.33;;
16705;SDS011;8469;60.136;15.180;2022-11-03T09:10:39;8.93;;;1.82;;
16705;SDS011;8469;60.136;15.180;2022-11-03T09:13:07;14.53;;;2.10;;
16705;SDS011;8469;60.136;15.180;2022-11-03T09:15:34;14.37;;;2.30;;
16705;SDS011;8469;60.136;15.180;2022-11-03T09:18:01;15.13;;;2.42;;
16705;SDS011;8469;60.136;15.180;2022-11-03T09:20:29;13.25;;;2.65;;
16705;SDS011;8469;60.136;15.180;2022-11-03T09:22:56;9.68;;;2.10;;
16705;SDS011;8469;60.136;15.180;2022-11-03T09:25:23;12.18;;;2.05;;
16705;SDS011;8469;60.136;15.180;2022-11-03T09:27:51;12.23;;;2.37;;
16705;SDS011;8469;60.136;15.180;2022-11-03T09:30:18;10.85;;;2.00;;
16705;SDS011;8469;60.136;15.180;2022-11-03T09:32:46;16.15;;;2.70;;
16705;SDS011;8469;60.136;15.180;2022-11-03T09:35:14;14.58;;;2.27;;
16705;SDS011;8469;60.136;15.180;2022-11-03T09:37:42;17.65;;;2.72;;
16705;SDS011;8469;60.136;15.180;2022-11-03T09:40:10;19.42;;;2.35;;
16705;SDS011;8469;60.136;15.180;2022-11-03T09:42:40;18.97;;;2.43;;
16705;SDS011;8469;60.136;15.180;2022-11-03T09:45:08;10.67;;;2.03;;
16705;SDS011;8469;60.136;15.180;2022-11-03T09:47:37;9.95;;;2.20;;
16705;SDS011;8469;60.136;15.180;2022-11-03T09:50:05;12.78;;;2.42;;
16705;SDS011;8469;60.136;15.180;2022-11-03T09:52:33;9.98;;;2.33;;
16705;SDS011;8469;60.136;15.180;2022-11-03T09:55:08;10.72;;;2.60;;
16705;SDS011;8469;60.136;15.180;2022-11-03T09:57:32;10.40;;;2.20;;
16705;SDS011;8469;60.136;15.180;2022-11-03T09:59:59;13.08;;;2.37;;
16705;SDS011;8469;60.136;15.180;2022-11-03T10:02:30;11.73;;;2.30;;
16705;SDS011;8469;60.136;15.180;2022-11-03T10:04:58;9.00;;;2.22;;
16705;SDS011;8469;60.136;15.180;2022-11-03T10:07:27;11.05;;;2.30;;
16705;SDS011;8469;60.136;15.180;2022-11-03T10:09:56;9.53;;;2.30;;
16705;SDS011;8469;60.136;15.180;2022-11-03T10:12:24;10.97;;;2.43;;
16705;SDS011;8469;60.136;15.180;2022-11-03T10:14:52;11.48;;;1.85;;
16705;SDS011;8469;60.136;15.180;2022-11-03T10:17:24;7.45;;;1.90;;
16705;SDS011;8469;60.136;15.180;2022-11-03T10:19:51;13.80;;;2.50;;
16705;SDS011;8469;60.136;15.180;2022-11-03T10:22:19;9.80;;;2.00;;
16705;SDS011;8469;60.136;15.180;2022-11-03T10:24:47;8.48;;;1.85;;
16705;SDS011;8469;60.136;15.180;2022-11-03T10:27:24;12.43;;;2.30;;
16705;SDS011;8469;60.136;15.180;2022-11-03T10:29:44;10.00;;;2.55;;
16705;SDS011;8469;60.136;15.180;2022-11-03T10:32:27;8.45;;;1.87;;
16705;SDS011;8469;60.136;15.180;2022-11-03T10:34:40;12.13;;;2.47;;
16705;SDS011;8469;60.136;15.180;2022-11-03T10:37:09;12.15;;;2.30;;
16705;SDS011;8469;60.136;15.180;2022-11-03T10:39:41;9.55;;;2.02;;
16705;SDS011;8469;60.136;15.180;2022-11-03T10:42:08;10.23;;;1.98;;
16705;SDS011;8469;60.136;15.180;2022-11-03T10:44:36;12.15;;;2.02;;
16705;SDS011;8469;60.136;15.180;2022-11-03T10:47:04;10.73;;;2.00;;
16705;SDS011;8469;60.136;15.180;2022-11-03T10:49:33;9.50;;;2.27;;
16705;SDS011;8469;60.136;15.180;2022-11-03T10:54:42;10.90;;;2.67;;
16705;SDS011;8469;60.136;15.180;2022-11-03T10:57:09;11.03;;;2.12;;
16705;SDS011;8469;60.136;15.180;2022-11-03T10:59:37;12.33;;;2.10;;
16705;SDS011;8469;60.136;15.180;2022-11-03T11:02:16;12.40;;;2.43;;
16705;SDS011;8469;60.136;15.180;2022-11-03T11:04:40;8.23;;;2.08;;
16705;SDS011;8469;60.136;15.180;2022-11-03T11:07:25;10.82;;;2.27;;
16705;SDS011;8469;60.136;15.180;2022-11-03T11:09:50;9.70;;;1.98;;
16705;SDS011;8469;60.136;15.180;2022-11-03T11:12:18;12.88;;;2.20;;
16705;SDS011;8469;60.136;15.180;2022-11-03T11:14:53;10.08;;;2.15;;
16705;SDS011;8469;60.136;15.180;2022-11-03T11:17:40;9.70;;;1.90;;
16705;SDS011;8469;60.136;15.180;2022-11-03T11:26:04;9.90;;;2.10;;
16705;SDS011;8469;60.136;15.180;2022-11-03T11:28:16;9.43;;;2.20;;
16705;SDS011;8469;60.136;15.180;2022-11-03T11:33:20;10.05;;;2.27;;
16705;SDS011;8469;60.136;15.180;2022-11-03T11:41:03;12.88;;;2.00;;
16705;SDS011;8469;60.136;15.180;2022-11-03T11:43:30;9.00;;;2.33;;
16705;SDS011;8469;60.136;15.180;2022-11-03T11:48:43;7.42;;;1.92;;
16705;SDS011;8469;60.136;15.180;2022-11-03T11:51:11;8.70;;;2.00;;
16705;SDS011;8469;60.136;15.180;2022-11-03T11:53:41;11.63;;;2.12;;
16705;SDS011;8469;60.136;15.180;2022-11-03T11:56:14;8.13;;;2.25;;
16705;SDS011;8469;60.136;15.180;2022-11-03T12:03:54;14.35;;;2.17;;
16705;SDS011;8469;60.136;15.180;2022-11-03T12:06:35;13.78;;;1.98;;
16705;SDS011;8469;60.136;15.180;2022-11-03T12:09:14;8.10;;;2.05;;
16705;SDS011;8469;60.136;15.180;2022-11-03T12:11:39;10.35;;;2.12;;
16705;SDS011;8469;60.136;15.180;2022-11-03T12:14:23;7.92;;;1.87;;
16705;SDS011;8469;60.136;15.180;2022-11-03T12:16:51;11.43;;;1.98;;
16705;SDS011;8469;60.136;15.180;2022-11-03T12:22:00;10.20;;;2.10;;
16705;SDS011;8469;60.136;15.180;2022-11-03T12:36:17;11.03;;;2.08;;
16705;SDS011;8469;60.136;15.180;2022-11-03T12:38:45;9.08;;;2.20;;
16705;SDS011;8469;60.136;15.180;2022-11-03T12:41:13;11.80;;;2.33;;
16705;SDS011;8469;60.136;15.180;2022-11-03T12:43:47;9.83;;;2.22;;
16705;SDS011;8469;60.136;15.180;2022-11-03T12:46:15;9.63;;;2.15;;
16705;SDS011;8469;60.136;15.180;2022-11-03T12:48:42;10.82;;;2.35;;
16705;SDS011;8469;60.136;15.180;2022-11-03T12:51:10;11.50;;;2.05;;
16705;SDS011;8469;60.136;15.180;2022-11-03T12:53:38;7.97;;;2.08;;
16705;SDS011;8469;60.136;15.180;2022-11-03T12:56:06;8.93;;;2.05;;
16705;SDS011;8469;60.136;15.180;2022-11-03T12:58:34;13.00;;;2.05;;
16705;SDS011;8469;60.136;15.180;2022-11-03T13:01:06;8.80;;;1.85;;
16705;SDS011;8469;60.136;15.180;2022-11-03T13:03:33;11.18;;;2.25;;
16705;SDS011;8469;60.136;15.180;2022-11-03T13:06:07;10.83;;;2.10;;
16705;SDS011;8469;60.136;15.180;2022-11-03T13:08:40;11.63;;;2.30;;
16705;SDS011;8469;60.136;15.180;2022-11-03T13:11:04;12.00;;;2.40;;
16705;SDS011;8469;60.136;15.180;2022-11-03T13:13:33;11.48;;;1.98;;
16705;SDS011;8469;60.136;15.180;2022-11-03T13:16:00;11.03;;;1.98;;
16705;SDS011;8469;60.136;15.180;2022-11-03T13:18:28;11.00;;;2.10;;
16705;SDS011;8469;60.136;15.180;2022-11-03T13:20:55;8.23;;;2.00;;
16705;SDS011;8469;60.136;15.180;2022-11-03T13:23:22;8.75;;;2.22;;
16705;SDS011;8469;60.136;15.180;2022-11-03T13:25:50;9.68;;;2.20;;
16705;SDS011;8469;60.136;15.180;2022-11-03T13:28:17;8.95;;;2.27;;
16705;SDS011;8469;60.136;15.180;2022-11-03T13:30:44;14.33;;;2.05;;
16705;SDS011;8469;60.136;15.180;2022-11-03T13:33:11;9.43;;;2.33;;
16705;SDS011;8469;60.136;15.180;2022-11-03T13:35:39;12.90;;;2.27;;
16705;SDS011;8469;60.136;15.180;2022-11-03T13:38:11;10.60;;;1.87;;
16705;SDS011;8469;60.136;15.180;2022-11-03T13:40:34;11.03;;;2.17;;
16705;SDS011;8469;60.136;15.180;2022-11-03T13:43:02;14.70;;;2.47;;
16705;SDS011;8469;60.136;15.180;2022-11-03T13:45:30;11.90;;;2.67;;
16705;SDS011;8469;60.136;15.180;2022-11-03T13:47:57;10.35;;;1.90;;
16705;SDS011;8469;60.136;15.180;2022-11-03T13:50:24;13.60;;;2.58;;
16705;SDS011;8469;60.136;15.180;2022-11-03T13:52:52;10.60;;;2.50;;
16705;SDS011;8469;60.136;15.180;2022-11-03T13:55:19;9.28;;;2.00;;
16705;SDS011;8469;60.136;15.180;2022-11-03T13:57:47;10.95;;;2.25;;
16705;SDS011;8469;60.136;15.180;2022-11-03T14:00:14;13.18;;;2.22;;
16705;SDS011;8469;60.136;15.180;2022-11-03T14:02:43;11.18;;;2.15;;
16705;SDS011;8469;60.136;15.180;2022-11-03T14:05:10;13.18;;;2.30;;
16705;SDS011;8469;60.136;15.180;2022-11-03T14:07:39;9.60;;;2.20;;
16705;SDS011;8469;60.136;15.180;2022-11-03T14:10:06;16.48;;;2.67;;
16705;SDS011;8469;60.136;15.180;2022-11-03T14:12:34;10.03;;;2.10;;
16705;SDS011;8469;60.136;15.180;2022-11-03T14:15:03;11.75;;;2.37;;
16705;SDS011;8469;60.136;15.180;2022-11-03T14:17:31;8.25;;;2.10;;
16705;SDS011;8469;60.136;15.180;2022-11-03T14:19:58;12.60;;;2.30;;
16705;SDS011;8469;60.136;15.180;2022-11-03T14:22:25;14.15;;;2.20;;
16705;SDS011;8469;60.136;15.180;2022-11-03T14:24:53;15.17;;;2.53;;
16705;SDS011;8469;60.136;15.180;2022-11-03T14:27:20;11.70;;;2.20;;
16705;SDS011;8469;60.136;15.180;2022-11-03T14:29:47;11.93;;;2.20;;
16705;SDS011;8469;60.136;15.180;2022-11-03T14:32:15;13.28;;;2.60;;
16705;SDS011;8469;60.136;15.180;2022-11-03T14:34:43;11.93;;;2.20;;
16705;SDS011;8469;60.136;15.180;2022-11-03T14:37:11;12.30;;;2.20;;
16705;SDS011;8469;60.136;15.180;2022-11-03T14:39:38;12.73;;;2.47;;
16705;SDS011;8469;60.136;15.180;2022-11-03T14:42:08;10.58;;;2.27;;
16705;SDS011;8469;60.136;15.180;2022-11-03T14:44:36;8.70;;;2.30;;
16705;SDS011;8469;60.136;15.180;2022-11-03T14:47:05;11.38;;;2.12;;
16705;SDS011;8469;60.136;15.180;2022-11-03T14:49:34;11.53;;;2.25;;
16705;SDS011;8469;60.136;15.180;2022-11-03T14:52:04;10.40;;;2.08;;
16705;SDS011;8469;60.136;15.180;2022-11-03T14:54:32;10.95;;;2.60;;
16705;SDS011;8469;60.136;15.180;2022-11-03T14:56:59;10.32;;;2.52;;
16705;SDS011;8469;60.136;15.180;2022-11-03T14:59:27;10.53;;;2.33;;
16705;SDS011;8469;60.136;15.180;2022-11-03T15:01:54;14.78;;;2.55;;
16705;SDS011;8469;60.136;15.180;2022-11-03T15:04:21;12.28;;;2.20;;
16705;SDS011;8469;60.136;15.180;2022-11-03T15:06:49;11.43;;;2.20;;
16705;SDS011;8469;60.136;15.180;2022-11-03T15:09:17;15.53;;;2.40;;
16705;SDS011;8469;60.136;15.180;2022-11-03T15:11:45;12.60;;;2.47;;
16705;SDS011;8469;60.136;15.180;2022-11-03T15:14:12;11.30;;;2.40;;
16705;SDS011;8469;60.136;15.180;2022-11-03T15:16:39;9.15;;;2.30;;
16705;SDS011;8469;60.136;15.180;2022-11-03T15:19:07;16.12;;;2.80;;
16705;SDS011;8469;60.136;15.180;2022-11-03T15:21:34;17.70;;;2.87;;
16705;SDS011;8469;60.136;15.180;2022-11-03T15:24:01;14.30;;;2.22;;
16705;SDS011;8469;60.136;15.180;2022-11-03T15:26:29;15.65;;;2.60;;
16705;SDS011;8469;60.136;15.180;2022-11-03T15:28:56;14.10;;;2.50;;
16705;SDS011;8469;60.136;15.180;2022-11-03T15:31:23;15.78;;;2.47;;
16705;SDS011;8469;60.136;15.180;2022-11-03T15:33:50;13.45;;;2.40;;
16705;SDS011;8469;60.136;15.180;2022-11-03T15:36:18;10.77;;;2.30;;
16705;SDS011;8469;60.136;15.180;2022-11-03T15:38:46;22.32;;;2.35;;
16705;SDS011;8469;60.136;15.180;2022-11-03T15:41:13;13.90;;;3.00;;